Time;durP1;ratioP1;P1;durP2;ratioP2;P2;SDS_P1;SDS_P2;PMS_P1;PMS_P2;Temp;Humidity;BMP_temperature;BMP_pressure;BME280_temperature;BME280_humidity;BME280_pressure;Samples;Min_cycle;Max_cycle;Signal;HPM_P1;HPM_P2
2023/09/07 00:02:13;;;;;;;9.27;4.57;;;19.30;69.90;;;;;;5071033;28;20551;-79
2023/09/07 00:04:43;;;;;;;7.43;4.67;;;19.20;70.00;;;;;;5089656;28;20555;-80
2023/09/07 00:07:11;;;;;;;8.93;4.80;;;19.20;70.10;;;;;;5089937;28;20437;-80
2023/09/07 00:09:39;;;;;;;7.57;4.17;;;19.20;70.10;;;;;;5088046;28;20500;-80
2023/09/07 00:12:09;;;;;;;9.77;5.17;;;19.20;70.20;;;;;;5089722;28;20448;-79
2023/09/07 00:14:36;;;;;;;8.07;5.23;;;19.10;70.20;;;;;;5089555;28;21156;-80
2023/09/07 00:17:05;;;;;;;7.60;4.80;;;19.10;70.30;;;;;;5071229;28;20453;-81
2023/09/07 00:19:36;;;;;;;7.70;4.90;;;19.10;70.50;;;;;;5088136;28;20557;-80
2023/09/07 00:22:05;;;;;;;10.70;4.63;;;19.10;70.60;;;;;;5085564;28;20468;-79
2023/09/07 00:24:33;;;;;;;9.67;5.07;;;19.10;70.60;;;;;;5090061;28;20448;-80
2023/09/07 00:27:01;;;;;;;11.57;4.30;;;19.00;70.70;;;;;;5071490;28;20452;-80
2023/09/07 00:29:30;;;;;;;8.20;5.40;;;19.00;70.70;;;;;;5071031;28;20506;-78
2023/09/07 00:31:58;;;;;;;9.90;5.10;;;19.00;70.70;;;;;;5070723;28;20843;-80
2023/09/07 00:34:26;;;;;;;7.77;4.97;;;19.00;70.90;;;;;;5087974;28;20539;-79
2023/09/07 00:36:54;;;;;;;8.57;4.67;;;19.00;70.90;;;;;;5070729;28;20820;-79
2023/09/07 00:39:22;;;;;;;8.70;5.03;;;19.00;71.10;;;;;;5069322;28;20489;-79
2023/09/07 00:41:50;;;;;;;9.93;4.73;;;19.00;71.20;;;;;;5075013;28;20511;-79
2023/09/07 00:44:18;;;;;;;7.37;4.13;;;19.00;71.10;;;;;;5072445;28;20460;-79
2023/09/07 00:46:48;;;;;;;11.83;5.40;;;19.00;71.10;;;;;;5070726;28;20551;-79
2023/09/07 00:49:17;;;;;;;10.20;4.93;;;18.90;70.90;;;;;;5070625;28;20448;-79
2023/09/07 00:51:46;;;;;;;8.50;4.60;;;18.90;70.90;;;;;;5069591;28;20473;-79
2023/09/07 00:54:14;;;;;;;7.27;4.50;;;18.90;70.90;;;;;;5088856;28;20521;-81
2023/09/07 00:56:43;;;;;;;8.93;4.67;;;18.90;71.10;;;;;;5088598;28;20540;-79
2023/09/07 00:59:13;;;;;;;8.83;4.77;;;18.90;71.10;;;;;;5067769;28;20483;-78
2023/09/07 01:01:43;;;;;;;9.87;4.40;;;18.80;71.10;;;;;;5087004;28;20480;-80
2023/09/07 01:04:12;;;;;;;6.70;4.10;;;18.80;71.10;;;;;;5086809;28;20849;-79
2023/09/07 01:06:46;;;;;;;10.17;4.27;;;18.80;71.20;;;;;;5085175;28;20801;-79
2023/09/07 01:09:22;;;;;;;9.07;4.50;;;18.80;71.10;;;;;;5086125;28;20457;-79
2023/09/07 01:11:50;;;;;;;9.17;4.93;;;18.80;71.10;;;;;;5068882;28;20854;-79
2023/09/07 01:14:18;;;;;;;14.50;5.40;;;18.70;71.10;;;;;;5084677;28;20456;-79
2023/09/07 01:16:48;;;;;;;8.23;4.73;;;18.70;71.10;;;;;;5069481;28;20456;-80
2023/09/07 01:19:17;;;;;;;8.17;4.67;;;18.70;71.10;;;;;;5083678;28;20488;-79
2023/09/07 01:21:48;;;;;;;8.07;5.03;;;18.70;71.10;;;;;;5069804;28;20476;-78
2023/09/07 01:24:18;;;;;;;7.70;4.50;;;18.70;71.10;;;;;;5082795;28;20459;-79
2023/09/07 01:26:49;;;;;;;8.50;5.47;;;18.70;71.10;;;;;;5069353;28;20461;-78
2023/09/07 01:29:17;;;;;;;6.87;4.00;;;18.60;71.10;;;;;;5087661;28;20452;-78
2023/09/07 01:31:45;;;;;;;9.90;4.97;;;18.60;71.10;;;;;;5068607;28;20519;-79
2023/09/07 01:34:14;;;;;;;12.13;4.90;;;18.60;71.20;;;;;;5069381;28;20453;-80
2023/09/07 01:36:42;;;;;;;8.43;4.43;;;18.60;71.20;;;;;;5070459;28;20445;-79
2023/09/07 01:39:21;;;;;;;7.70;4.67;;;18.60;71.10;;;;;;5070555;28;20520;-78
2023/09/07 01:41:49;;;;;;;8.63;5.23;;;18.60;71.10;;;;;;5080380;28;20469;-79
2023/09/07 01:44:19;;;;;;;7.93;4.60;;;18.60;71.10;;;;;;5070007;28;20449;-78
2023/09/07 01:46:47;;;;;;;8.17;5.27;;;18.60;71.10;;;;;;5070247;28;20459;-80
2023/09/07 01:49:15;;;;;;;13.43;5.03;;;18.50;71.10;;;;;;5070413;28;20445;-79
2023/09/07 01:51:43;;;;;;;7.17;4.60;;;18.50;71.10;;;;;;5069253;28;20456;-79
2023/09/07 01:54:11;;;;;;;8.77;4.83;;;18.50;71.10;;;;;;5066472;28;20449;-78
2023/09/07 01:56:41;;;;;;;8.17;5.17;;;18.50;71.10;;;;;;5087246;28;20484;-79
2023/09/07 01:59:09;;;;;;;9.27;4.70;;;18.50;71.20;;;;;;5070591;28;20887;-78
2023/09/07 02:01:38;;;;;;;7.70;5.07;;;18.50;71.20;;;;;;5079170;28;20479;-79
2023/09/07 02:04:06;;;;;;;6.47;4.10;;;18.40;71.10;;;;;;5069913;28;21277;-79
2023/09/07 02:06:35;;;;;;;8.93;4.50;;;18.40;71.20;;;;;;5069959;28;20464;-80
2023/09/07 02:09:04;;;;;;;8.80;4.80;;;18.30;71.20;;;;;;5085939;28;20456;-79
2023/09/07 02:11:32;;;;;;;8.37;4.87;;;18.20;71.20;;;;;;5088180;28;20469;-78
2023/09/07 02:14:02;;;;;;;11.40;5.17;;;18.20;71.30;;;;;;5088616;28;20563;-79
2023/09/07 02:16:30;;;;;;;8.47;5.03;;;18.20;71.30;;;;;;5069989;28;20471;-79
2023/09/07 02:19:03;;;;;;;7.43;4.93;;;18.20;71.30;;;;;;5069763;28;20556;-79
2023/09/07 02:21:32;;;;;;;8.17;5.13;;;18.20;71.40;;;;;;5087527;28;20468;-79
2023/09/07 02:24:00;;;;;;;10.03;5.30;;;18.20;71.40;;;;;;5085804;28;20536;-79
2023/09/07 02:26:28;;;;;;;8.50;4.47;;;18.20;71.40;;;;;;5089031;28;20457;-79
2023/09/07 02:28:56;;;;;;;8.60;4.60;;;18.20;71.40;;;;;;5090534;28;20518;-78
2023/09/07 02:31:26;;;;;;;7.50;4.60;;;18.10;71.40;;;;;;5072430;28;20486;-79
2023/09/07 02:33:54;;;;;;;9.47;4.93;;;18.10;71.40;;;;;;5089264;28;20962;-77
2023/09/07 02:36:22;;;;;;;7.87;4.53;;;18.10;71.40;;;;;;5071415;28;20715;-79
2023/09/07 02:38:50;;;;;;;7.10;4.90;;;18.10;71.40;;;;;;5090846;28;20476;-79
2023/09/07 02:41:18;;;;;;;9.40;5.60;;;18.10;71.40;;;;;;5089904;28;20514;-80
2023/09/07 02:43:46;;;;;;;9.40;5.00;;;18.10;71.40;;;;;;5090106;28;20449;-79
2023/09/07 02:46:16;;;;;;;8.37;5.00;;;18.10;71.40;;;;;;5085581;28;21005;-79
2023/09/07 02:48:45;;;;;;;9.10;5.03;;;18.10;71.40;;;;;;5071786;28;20484;-80
2023/09/07 02:51:14;;;;;;;10.90;5.30;;;18.00;71.40;;;;;;5068006;28;20449;-79
2023/09/07 02:53:43;;;;;;;13.60;5.40;;;18.00;71.40;;;;;;5089103;28;20803;-79
2023/09/07 02:56:11;;;;;;;8.10;5.17;;;18.00;71.30;;;;;;5072685;28;21037;-80
2023/09/07 02:58:40;;;;;;;7.30;5.10;;;17.90;71.30;;;;;;5072720;28;20457;-80
2023/09/07 03:01:09;;;;;;;8.77;5.23;;;17.90;71.40;;;;;;5072133;28;20469;-79
2023/09/07 03:03:41;;;;;;;8.80;4.90;;;17.80;71.40;;;;;;5088496;28;20453;-80
2023/09/07 03:06:12;;;;;;;7.47;5.20;;;17.80;71.50;;;;;;5064344;28;20453;-79
2023/09/07 03:08:43;;;;;;;11.43;5.50;;;17.80;71.50;;;;;;5076931;28;20456;-79
2023/09/07 03:11:12;;;;;;;9.50;5.47;;;17.80;71.50;;;;;;5073405;28;20464;-79
2023/09/07 03:13:42;;;;;;;8.87;5.30;;;17.80;71.60;;;;;;5072241;28;20895;-79
2023/09/07 03:16:10;;;;;;;9.23;5.00;;;17.80;71.50;;;;;;5073128;28;20457;-79
2023/09/07 03:18:38;;;;;;;7.57;4.80;;;17.80;71.50;;;;;;5072260;28;20457;-79
2023/09/07 03:21:07;;;;;;;9.73;5.93;;;17.70;71.50;;;;;;5072734;28;20456;-78
2023/09/07 03:23:36;;;;;;;8.67;5.03;;;17.70;71.50;;;;;;5088354;28;20457;-79
2023/09/07 03:26:04;;;;;;;8.20;5.43;;;17.70;71.60;;;;;;5072146;28;20461;-80
2023/09/07 03:28:32;;;;;;;8.60;5.73;;;17.70;71.60;;;;;;5072548;28;20519;-79
2023/09/07 03:31:09;;;;;;;8.13;5.20;;;17.70;71.60;;;;;;5076331;28;20927;-79
2023/09/07 03:33:37;;;;;;;9.80;5.90;;;17.70;71.60;;;;;;5070681;28;20464;-79
2023/09/07 03:36:05;;;;;;;9.07;6.17;;;17.70;71.60;;;;;;5069642;28;20579;-79
2023/09/07 03:38:33;;;;;;;7.43;5.50;;;17.70;71.70;;;;;;5088368;28;20819;-80
2023/09/07 03:41:03;;;;;;;14.80;6.60;;;17.70;71.80;;;;;;5089076;28;20481;-80
2023/09/07 03:43:31;;;;;;;9.70;5.50;;;17.70;71.80;;;;;;5087474;28;20449;-79
2023/09/07 03:46:05;;;;;;;8.37;5.90;;;17.70;71.80;;;;;;5071709;28;20457;-79
2023/09/07 03:48:34;;;;;;;8.97;5.63;;;17.70;71.80;;;;;;5071106;28;20695;-80
2023/09/07 03:51:07;;;;;;;8.80;6.00;;;17.70;71.70;;;;;;5071660;28;20787;-79
2023/09/07 03:53:35;;;;;;;10.07;5.97;;;17.60;71.90;;;;;;5070772;28;20463;-80
2023/09/07 03:56:05;;;;;;;8.50;5.17;;;17.60;71.90;;;;;;5070488;28;20986;-79
2023/09/07 03:58:33;;;;;;;10.20;5.90;;;17.60;71.90;;;;;;5089612;28;20448;-80
2023/09/07 04:01:01;;;;;;;10.13;5.50;;;17.50;71.80;;;;;;5065686;28;21014;-80
2023/09/07 04:03:30;;;;;;;11.30;5.73;;;17.40;71.80;;;;;;5068278;28;20450;-79
2023/09/07 04:06:00;;;;;;;14.20;6.23;;;17.40;71.90;;;;;;5069347;28;20457;-79
2023/09/07 04:08:28;;;;;;;9.33;5.50;;;17.30;72.00;;;;;;5069563;28;20556;-79
2023/09/07 04:10:57;;;;;;;8.90;6.70;;;17.30;72.10;;;;;;5087261;28;20535;-79
2023/09/07 04:13:27;;;;;;;8.10;5.10;;;17.30;72.20;;;;;;5085580;28;20450;-79
2023/09/07 04:15:55;;;;;;;10.53;6.10;;;17.30;72.20;;;;;;5068746;28;20460;-79
2023/09/07 04:18:23;;;;;;;8.57;5.40;;;17.30;72.10;;;;;;5089058;28;20839;-79
2023/09/07 04:20:51;;;;;;;9.90;6.00;;;17.20;72.10;;;;;;5070764;28;20510;-79
2023/09/07 04:23:19;;;;;;;10.87;6.27;;;17.20;72.20;;;;;;5088361;28;20460;-78
2023/09/07 04:25:47;;;;;;;11.17;5.90;;;17.20;72.20;;;;;;5071269;28;20481;-81
2023/09/07 04:28:15;;;;;;;7.27;5.03;;;17.20;72.30;;;;;;5070263;28;20452;-79
2023/09/07 04:30:45;;;;;;;9.70;6.37;;;17.20;72.30;;;;;;5089232;28;20560;-79
2023/09/07 04:33:13;;;;;;;9.27;5.63;;;17.20;72.30;;;;;;5068387;28;20452;-79
2023/09/07 04:35:40;;;;;;;8.67;5.87;;;17.20;72.30;;;;;;5088213;28;20488;-79
2023/09/07 04:38:08;;;;;;;10.10;7.03;;;17.20;72.30;;;;;;5086250;28;20450;-79
2023/09/07 04:40:37;;;;;;;11.80;6.13;;;17.20;72.20;;;;;;5070916;28;21032;-80
2023/09/07 04:43:06;;;;;;;10.50;5.60;;;17.20;72.30;;;;;;5083680;28;20488;-78
2023/09/07 04:45:34;;;;;;;7.70;5.60;;;17.10;72.30;;;;;;5086083;28;20837;-79
2023/09/07 04:48:04;;;;;;;12.03;5.83;;;17.10;72.40;;;;;;5088955;28;20548;-80
2023/09/07 04:50:32;;;;;;;9.10;5.70;;;17.10;72.30;;;;;;5089577;28;20449;-78
2023/09/07 04:53:00;;;;;;;14.27;6.33;;;17.10;72.30;;;;;;5069623;28;20961;-78
2023/09/07 04:55:28;;;;;;;8.90;5.80;;;17.10;72.30;;;;;;5069681;28;20453;-79
2023/09/07 04:57:56;;;;;;;12.53;6.30;;;17.10;72.40;;;;;;5070151;28;20453;-78
2023/09/07 05:00:24;;;;;;;15.23;6.30;;;17.10;72.40;;;;;;5068813;28;20477;-79
2023/09/07 05:02:52;;;;;;;8.90;6.13;;;17.10;72.40;;;;;;5087422;28;20452;-79
2023/09/07 05:05:22;;;;;;;10.20;5.57;;;17.10;72.40;;;;;;5082425;28;20536;-78
2023/09/07 05:07:50;;;;;;;10.53;5.50;;;17.10;72.40;;;;;;5071051;28;20853;-78
2023/09/07 05:10:18;;;;;;;12.43;6.63;;;17.10;72.40;;;;;;5087229;28;20437;-79
2023/09/07 05:12:54;;;;;;;10.97;6.43;;;17.10;72.50;;;;;;5068739;28;20529;-80
2023/09/07 05:15:22;;;;;;;12.73;6.20;;;17.10;72.50;;;;;;5070135;28;20453;-79
2023/09/07 05:17:49;;;;;;;8.37;5.70;;;17.30;73.40;;;;;;5068964;28;20489;-79
2023/09/07 05:20:18;;;;;;;9.60;6.47;;;17.90;73.90;;;;;;5071064;28;20582;-78
2023/09/07 05:22:47;;;;;;;10.23;5.70;;;18.20;72.20;;;;;;5068875;28;20480;-79
2023/09/07 05:25:15;;;;;;;10.30;6.80;;;18.10;71.50;;;;;;5071021;28;20996;-78
2023/09/07 05:27:44;;;;;;;10.33;6.63;;;18.00;71.40;;;;;;5087252;28;20545;-78
2023/09/07 05:30:13;;;;;;;10.47;6.10;;;17.80;71.40;;;;;;5071953;28;20545;-79
2023/09/07 05:32:41;;;;;;;10.10;6.53;;;17.70;71.60;;;;;;5066207;28;20449;-79
2023/09/07 05:35:11;;;;;;;14.03;7.03;;;17.60;71.70;;;;;;5070359;28;20448;-79
2023/09/07 05:37:40;;;;;;;10.00;7.07;;;17.60;71.90;;;;;;5084798;28;20814;-79
2023/09/07 05:40:11;;;;;;;9.10;6.03;;;17.60;72.10;;;;;;5086703;28;20452;-80
2023/09/07 05:42:39;;;;;;;12.60;7.00;;;17.60;72.20;;;;;;5085308;28;20457;-79
2023/09/07 05:45:09;;;;;;;10.67;6.87;;;17.60;72.20;;;;;;5067555;28;20999;-80
2023/09/07 05:47:37;;;;;;;10.00;6.50;;;17.50;72.20;;;;;;5067087;28;20467;-78
2023/09/07 05:50:06;;;;;;;9.10;6.13;;;17.50;72.30;;;;;;5069315;28;20456;-79
2023/09/07 05:52:34;;;;;;;11.00;6.70;;;17.50;72.40;;;;;;5085492;28;20830;-79
2023/09/07 05:55:02;;;;;;;12.00;6.30;;;17.50;72.50;;;;;;5081943;28;20543;-77
2023/09/07 05:57:32;;;;;;;11.77;7.80;;;17.50;72.60;;;;;;5066089;28;20456;-77
2023/09/07 06:00:00;;;;;;;9.63;7.37;;;17.60;72.70;;;;;;5081003;28;20909;-77
2023/09/07 06:02:28;;;;;;;15.03;8.93;;;17.60;72.80;;;;;;5066203;28;20496;-77
2023/09/07 06:04:56;;;;;;;12.30;8.60;;;17.60;72.90;;;;;;5070176;28;20453;-77
2023/09/07 06:07:24;;;;;;;17.40;8.43;;;17.60;73.00;;;;;;5073163;28;20444;-77
2023/09/07 06:09:52;;;;;;;12.97;8.00;;;17.70;73.00;;;;;;5089849;28;20456;-77
2023/09/07 06:12:20;;;;;;;11.73;8.30;;;17.70;73.20;;;;;;5091652;28;20552;-79
2023/09/07 06:14:49;;;;;;;22.93;8.80;;;17.70;73.30;;;;;;5073003;28;21097;-78
2023/09/07 06:17:18;;;;;;;10.70;7.77;;;17.70;73.50;;;;;;5074261;28;20540;-76
2023/09/07 06:19:47;;;;;;;12.90;9.10;;;17.80;73.70;;;;;;5085856;28;20495;-79
2023/09/07 06:22:15;;;;;;;12.43;8.30;;;17.80;73.80;;;;;;5075627;28;20471;-78
2023/09/07 06:24:43;;;;;;;11.17;8.40;;;17.80;74.00;;;;;;5073644;28;20460;-80
2023/09/07 06:27:11;;;;;;;11.60;8.70;;;17.90;74.20;;;;;;5073643;28;20456;-76
2023/09/07 06:29:39;;;;;;;12.70;9.53;;;17.90;74.40;;;;;;5091578;28;20448;-78
2023/09/07 06:32:08;;;;;;;15.93;10.10;;;18.00;74.60;;;;;;5085752;28;20460;-77
2023/09/07 06:34:37;;;;;;;12.17;8.97;;;18.00;74.80;;;;;;5089806;28;20985;-78
2023/09/07 06:37:06;;;;;;;21.73;10.00;;;18.10;75.00;;;;;;5091968;28;20536;-79
2023/09/07 06:39:34;;;;;;;12.70;9.70;;;18.10;75.20;;;;;;5087166;28;21025;-79
2023/09/07 06:42:03;;;;;;;15.53;8.97;;;18.10;75.50;;;;;;5089539;28;20507;-79
2023/09/07 06:44:38;;;;;;;12.17;8.60;;;18.20;75.70;;;;;;5090204;28;20535;-78
2023/09/07 06:47:07;;;;;;;11.20;7.80;;;18.20;75.80;;;;;;5091653;28;20465;-78
2023/09/07 06:49:38;;;;;;;12.60;9.70;;;18.30;75.90;;;;;;5087815;28;20453;-78
2023/09/07 06:52:06;;;;;;;14.40;9.10;;;18.40;76.10;;;;;;5089116;28;21279;-80
2023/09/07 06:54:37;;;;;;;12.07;9.17;;;18.50;76.10;;;;;;5090378;28;20459;-78
2023/09/07 06:57:07;;;;;;;14.40;8.90;;;18.50;76.20;;;;;;5088221;28;20531;-77
2023/09/07 06:59:36;;;;;;;12.10;8.00;;;18.60;76.20;;;;;;5088093;28;20460;-78
2023/09/07 07:02:04;;;;;;;14.13;9.00;;;18.70;76.20;;;;;;5079841;28;20537;-78
2023/09/07 07:04:35;;;;;;;11.97;8.00;;;18.80;76.30;;;;;;5078291;28;20457;-77
2023/09/07 07:07:05;;;;;;;13.20;8.10;;;18.90;76.30;;;;;;5094486;28;20453;-79
2023/09/07 07:09:34;;;;;;;10.70;7.90;;;19.00;76.40;;;;;;5095499;28;20492;-77
2023/09/07 07:12:03;;;;;;;12.47;7.57;;;19.10;76.40;;;;;;5075109;28;20446;-77
2023/09/07 07:14:31;;;;;;;13.93;7.80;;;19.20;76.50;;;;;;5079559;28;20481;-78
2023/09/07 07:17:01;;;;;;;12.00;7.43;;;19.30;76.50;;;;;;5095559;28;20962;-80
2023/09/07 07:19:30;;;;;;;13.67;9.30;;;19.30;76.50;;;;;;5087557;28;20448;-78
2023/09/07 07:21:59;;;;;;;14.77;7.93;;;19.50;76.50;;;;;;5087355;28;20490;-80
2023/09/07 07:24:28;;;;;;;12.10;7.57;;;19.60;76.50;;;;;;5095201;28;20505;-78
2023/09/07 07:26:56;;;;;;;12.17;8.30;;;19.70;76.40;;;;;;5082651;28;20514;-80
2023/09/07 07:29:25;;;;;;;11.10;7.00;;;19.80;76.20;;;;;;5075268;28;20585;-79
2023/09/07 07:31:53;;;;;;;10.80;7.17;;;19.90;76.20;;;;;;5078097;28;20456;-78
2023/09/07 07:34:21;;;;;;;11.90;7.93;;;19.90;76.10;;;;;;5072595;28;20511;-78
2023/09/07 07:36:49;;;;;;;12.90;7.70;;;20.00;76.00;;;;;;5088125;28;20457;-77
2023/09/07 07:39:24;;;;;;;9.97;7.33;;;20.10;75.90;;;;;;5066165;28;20464;-77
2023/09/07 07:41:53;;;;;;;10.70;7.37;;;20.20;75.80;;;;;;5077081;28;20889;-78
2023/09/07 07:44:22;;;;;;;10.47;7.23;;;20.30;75.70;;;;;;5088631;28;20527;-80
2023/09/07 07:46:50;;;;;;;10.90;7.37;;;20.30;75.60;;;;;;5090114;28;21044;-78
2023/09/07 07:49:19;;;;;;;9.77;6.70;;;20.40;75.40;;;;;;5075540;28;20474;-78
2023/09/07 07:51:47;;;;;;;10.03;7.30;;;20.50;75.10;;;;;;5085736;28;21234;-77
2023/09/07 07:54:16;;;;;;;11.80;6.57;;;20.50;75.00;;;;;;5086447;28;20461;-77
2023/09/07 07:56:44;;;;;;;14.30;7.10;;;20.60;74.70;;;;;;5088225;28;20461;-78
2023/09/07 07:59:13;;;;;;;11.20;6.87;;;20.70;74.50;;;;;;5077315;28;20568;-79
2023/09/07 08:01:41;;;;;;;11.43;7.10;;;20.80;74.40;;;;;;5100164;28;20472;-78
2023/09/07 08:04:11;;;;;;;9.80;5.90;;;20.80;74.20;;;;;;5090940;28;20983;-78
2023/09/07 08:06:40;;;;;;;8.33;6.13;;;20.90;73.90;;;;;;5088347;28;20577;-78
2023/09/07 08:09:08;;;;;;;13.10;6.77;;;21.00;73.80;;;;;;5090653;28;20459;-78
2023/09/07 08:11:36;;;;;;;11.20;6.40;;;21.00;73.50;;;;;;5090368;28;20464;-79
2023/09/07 08:14:04;;;;;;;10.80;6.10;;;21.10;73.30;;;;;;5091097;28;20452;-78
2023/09/07 08:16:33;;;;;;;13.60;7.30;;;21.20;73.20;;;;;;5109984;28;20454;-78
2023/09/07 08:19:03;;;;;;;14.20;6.70;;;21.20;73.20;;;;;;5089963;28;20976;-77
2023/09/07 08:21:33;;;;;;;14.90;6.60;;;21.30;73.00;;;;;;5090618;28;20448;-78
2023/09/07 08:24:02;;;;;;;10.10;6.30;;;21.40;72.90;;;;;;5089952;28;20490;-78
2023/09/07 08:26:30;;;;;;;8.90;5.67;;;21.40;72.80;;;;;;5085054;28;21016;-79
2023/09/07 08:28:59;;;;;;;14.27;6.80;;;21.50;72.60;;;;;;5107339;28;20528;-80
2023/09/07 08:31:27;;;;;;;9.40;6.13;;;21.60;72.50;;;;;;5109170;28;20460;-79
2023/09/07 08:33:57;;;;;;;9.50;6.47;;;21.70;72.30;;;;;;5102369;28;20478;-78
2023/09/07 08:36:28;;;;;;;14.10;5.80;;;21.70;72.10;;;;;;5091072;28;20824;-78
2023/09/07 08:38:56;;;;;;;10.93;6.87;;;21.80;72.10;;;;;;5091169;28;20459;-78
2023/09/07 08:41:24;;;;;;;11.90;6.57;;;21.90;71.90;;;;;;5106635;28;20482;-78
2023/09/07 08:43:54;;;;;;;14.23;5.87;;;22.00;71.80;;;;;;5109425;28;20492;-79
2023/09/07 08:46:24;;;;;;;12.87;6.33;;;22.00;71.60;;;;;;5087385;28;20464;-79
2023/09/07 08:48:52;;;;;;;11.83;6.30;;;22.10;71.40;;;;;;5108822;28;20540;-78
2023/09/07 08:51:22;;;;;;;12.83;6.30;;;22.20;71.00;;;;;;5106854;28;20933;-79
2023/09/07 08:53:51;;;;;;;10.10;5.30;;;22.20;70.90;;;;;;5106652;28;20543;-83
2023/09/07 08:56:21;;;;;;;13.27;6.77;;;22.30;70.60;;;;;;5107282;28;20690;-78
2023/09/07 08:58:49;;;;;;;9.20;5.70;;;22.40;70.40;;;;;;5107868;28;20456;-78
2023/09/07 09:01:18;;;;;;;13.13;6.13;;;22.50;70.30;;;;;;5107959;28;20574;-79
2023/09/07 09:03:48;;;;;;;9.40;5.90;;;22.50;70.00;;;;;;5107408;28;20495;-78
2023/09/07 09:06:19;;;;;;;8.90;5.10;;;22.60;69.80;;;;;;5106356;28;20456;-80
2023/09/07 09:08:50;;;;;;;10.93;5.83;;;22.60;69.70;;;;;;5090485;28;20811;-79
2023/09/07 09:11:19;;;;;;;8.97;5.33;;;22.70;69.60;;;;;;5103615;28;20539;-79
2023/09/07 09:13:48;;;;;;;10.00;5.73;;;22.70;69.60;;;;;;5107752;28;20450;-79
2023/09/07 09:16:16;;;;;;;9.07;5.93;;;22.80;69.40;;;;;;5107360;28;20805;-77
2023/09/07 09:18:52;;;;;;;9.63;5.30;;;22.90;69.30;;;;;;5104670;28;20483;-78
2023/09/07 09:21:20;;;;;;;12.13;6.37;;;22.90;69.00;;;;;;5105012;28;20981;-79
2023/09/07 09:23:51;;;;;;;10.63;6.20;;;23.00;68.90;;;;;;5085608;28;20554;-77
2023/09/07 09:26:20;;;;;;;10.57;5.73;;;23.00;68.50;;;;;;5105236;28;20494;-79
2023/09/07 09:28:50;;;;;;;10.57;5.23;;;23.10;68.20;;;;;;5103638;28;20513;-77
2023/09/07 09:31:18;;;;;;;10.40;6.10;;;23.20;68.00;;;;;;5079861;28;20473;-78
2023/09/07 09:33:51;;;;;;;15.60;6.00;;;23.20;67.90;;;;;;5086851;28;21018;-78
2023/09/07 09:36:19;;;;;;;11.83;5.90;;;23.20;67.70;;;;;;5089648;28;20459;-78
2023/09/07 09:38:52;;;;;;;11.23;5.60;;;23.30;67.60;;;;;;5091008;28;20449;-77
2023/09/07 09:41:21;;;;;;;8.93;5.10;;;23.40;67.40;;;;;;5091912;28;21007;-79
2023/09/07 09:43:51;;;;;;;10.30;5.50;;;23.40;67.30;;;;;;5090653;28;20491;-80
2023/09/07 09:46:19;;;;;;;10.53;5.67;;;23.50;67.20;;;;;;5091847;28;20464;-78
2023/09/07 09:48:49;;;;;;;7.50;5.23;;;23.50;67.00;;;;;;5089313;28;20463;-78
2023/09/07 09:51:19;;;;;;;11.77;4.93;;;23.60;66.80;;;;;;5090105;28;20456;-79
2023/09/07 09:53:50;;;;;;;8.63;5.10;;;23.70;66.60;;;;;;5089743;28;20453;-77
2023/09/07 09:56:20;;;;;;;8.13;5.40;;;23.70;66.40;;;;;;5089873;28;20794;-79
2023/09/07 09:58:48;;;;;;;8.10;4.90;;;23.80;66.10;;;;;;5090920;28;20460;-78
2023/09/07 10:01:17;;;;;;;7.90;5.00;;;23.80;66.00;;;;;;5091754;28;21043;-77
2023/09/07 10:03:48;;;;;;;10.73;5.80;;;23.90;65.60;;;;;;5071369;28;21019;-78
2023/09/07 10:06:21;;;;;;;8.80;5.70;;;23.90;65.30;;;;;;5090917;28;20457;-80
2023/09/07 10:08:56;;;;;;;9.50;5.27;;;24.00;65.10;;;;;;5091216;28;20460;-78
2023/09/07 10:11:30;;;;;;;10.03;5.97;;;24.00;64.80;;;;;;5087987;28;20513;-77
2023/09/07 10:13:58;;;;;;;9.60;4.70;;;24.00;64.80;;;;;;5087786;28;20600;-77
2023/09/07 10:16:27;;;;;;;9.03;5.47;;;24.10;64.90;;;;;;5091627;28;20467;-80
2023/09/07 10:18:55;;;;;;;7.43;4.70;;;24.10;64.80;;;;;;5091124;28;20514;-77
2023/09/07 10:21:26;;;;;;;9.77;5.10;;;24.20;64.70;;;;;;5092022;28;20977;-78
2023/09/07 10:23:55;;;;;;;17.03;5.63;;;24.20;64.20;;;;;;5090599;28;20460;-79
2023/09/07 10:26:23;;;;;;;9.50;5.23;;;24.30;64.00;;;;;;5092952;28;20456;-77
2023/09/07 10:29:00;;;;;;;9.50;5.47;;;24.40;63.90;;;;;;5094584;28;20463;-79
2023/09/07 10:31:30;;;;;;;12.10;5.77;;;24.50;63.60;;;;;;5091795;28;20492;-79
2023/09/07 10:34:18;;;;;;;13.20;5.23;;;24.50;63.70;;;;;;5090873;28;20448;-78
2023/09/07 10:36:46;;;;;;;8.20;5.53;;;24.60;63.60;;;;;;5089750;28;20457;-79
2023/09/07 10:39:16;;;;;;;10.90;4.60;;;24.70;63.30;;;;;;5090653;28;20452;-79
2023/09/07 10:41:47;;;;;;;9.10;5.20;;;24.70;63.10;;;;;;5089491;28;20896;-79
2023/09/07 10:44:16;;;;;;;7.77;4.73;;;24.80;62.80;;;;;;5090404;28;20815;-79
2023/09/07 10:46:44;;;;;;;8.67;4.53;;;24.90;62.50;;;;;;5090812;28;20459;-77
2023/09/07 10:49:13;;;;;;;12.80;5.10;;;24.90;62.10;;;;;;5090413;28;20483;-77
2023/09/07 10:51:43;;;;;;;10.67;6.17;;;24.90;62.00;;;;;;5091054;28;20812;-77
2023/09/07 10:54:25;;;;;;;8.00;5.13;;;24.90;61.90;;;;;;5090274;28;20509;-77
2023/09/07 10:56:57;;;;;;;11.57;5.50;;;25.00;61.50;;;;;;5089931;28;20481;-79
2023/09/07 10:59:29;;;;;;;8.73;5.23;;;25.10;61.60;;;;;;5091372;28;20456;-78
2023/09/07 11:02:04;;;;;;;9.37;5.80;;;25.10;61.30;;;;;;5090404;28;20496;-78
2023/09/07 11:04:33;;;;;;;12.20;5.37;;;25.20;60.90;;;;;;5087479;28;20571;-79
2023/09/07 11:07:04;;;;;;;9.80;5.10;;;25.30;60.80;;;;;;5105131;28;21045;-77
2023/09/07 11:09:33;;;;;;;9.10;4.77;;;25.30;60.60;;;;;;5089880;28;20468;-78
2023/09/07 11:12:05;;;;;;;9.70;4.70;;;25.40;60.50;;;;;;5106311;28;20824;-79
2023/09/07 11:14:33;;;;;;;8.73;5.20;;;25.40;60.40;;;;;;5089962;28;20460;-78
2023/09/07 11:17:03;;;;;;;8.80;5.03;;;25.50;60.30;;;;;;5087839;28;20475;-78
2023/09/07 11:19:33;;;;;;;13.03;5.20;;;25.50;60.10;;;;;;5089464;28;20531;-79
2023/09/07 11:22:04;;;;;;;13.43;5.53;;;25.50;59.90;;;;;;5104553;28;20482;-77
2023/09/07 11:24:35;;;;;;;10.90;4.83;;;25.60;59.90;;;;;;5089216;28;20469;-78
2023/09/07 11:27:03;;;;;;;9.57;4.83;;;25.60;60.00;;;;;;5089758;28;20470;-77
2023/09/07 11:29:33;;;;;;;10.07;5.60;;;25.70;59.90;;;;;;5084818;28;20449;-78
2023/09/07 11:32:07;;;;;;;8.53;4.73;;;25.70;59.80;;;;;;5088975;28;20863;-78
2023/09/07 11:34:35;;;;;;;6.87;4.40;;;25.80;59.50;;;;;;5090158;28;20467;-79
2023/09/07 11:37:04;;;;;;;7.77;4.53;;;25.80;59.40;;;;;;5069776;28;20485;-78
2023/09/07 11:39:33;;;;;;;8.33;4.90;;;25.80;59.40;;;;;;5089329;28;20543;-80
2023/09/07 11:42:01;;;;;;;9.67;4.93;;;25.90;59.10;;;;;;5089352;28;20480;-79
2023/09/07 11:44:29;;;;;;;8.63;4.83;;;25.90;59.10;;;;;;5089916;28;20476;-79
2023/09/07 11:46:57;;;;;;;10.67;5.33;;;26.00;59.00;;;;;;5089752;28;20962;-78
2023/09/07 11:49:25;;;;;;;9.10;5.53;;;26.00;59.00;;;;;;5071288;28;20471;-78
2023/09/07 11:51:53;;;;;;;9.83;5.83;;;26.10;58.90;;;;;;5089658;28;20522;-77
2023/09/07 11:54:22;;;;;;;9.73;4.53;;;26.10;58.50;;;;;;5089662;28;20447;-79
2023/09/07 11:56:52;;;;;;;10.53;4.70;;;26.10;58.30;;;;;;5089391;28;21051;-79
2023/09/07 11:59:20;;;;;;;8.33;5.20;;;26.20;58.10;;;;;;5088469;28;20469;-77
2023/09/07 12:01:48;;;;;;;12.40;5.13;;;26.20;58.10;;;;;;5087706;28;20919;-79
2023/09/07 12:04:16;;;;;;;10.20;5.40;;;26.30;58.00;;;;;;5085739;28;20465;-79
2023/09/07 12:06:44;;;;;;;15.43;5.07;;;26.30;57.90;;;;;;5086878;28;20540;-78
2023/09/07 12:09:14;;;;;;;10.90;5.20;;;26.40;58.00;;;;;;5089164;28;20904;-79
2023/09/07 12:11:43;;;;;;;11.37;4.93;;;26.40;57.40;;;;;;5088725;28;20448;-79
2023/09/07 12:14:12;;;;;;;11.63;4.67;;;26.50;57.10;;;;;;5086112;28;20935;-78
2023/09/07 12:16:40;;;;;;;8.10;4.97;;;26.50;57.10;;;;;;5089208;28;20452;-78
2023/09/07 12:19:08;;;;;;;8.60;4.70;;;26.60;57.00;;;;;;5089618;28;20505;-77
2023/09/07 12:21:36;;;;;;;11.00;5.00;;;26.70;56.90;;;;;;5103266;28;20456;-78
2023/09/07 12:24:05;;;;;;;9.70;4.10;;;26.70;56.80;;;;;;5086116;28;20484;-79
2023/09/07 12:26:33;;;;;;;7.27;4.47;;;26.70;56.80;;;;;;5083822;28;21120;-78
2023/09/07 12:29:02;;;;;;;10.00;5.27;;;26.80;56.60;;;;;;5084720;28;20472;-78
2023/09/07 12:31:31;;;;;;;8.13;5.10;;;26.80;56.30;;;;;;5087342;28;21097;-77
2023/09/07 12:34:01;;;;;;;7.70;4.63;;;26.90;55.90;;;;;;5083895;28;20464;-77
2023/09/07 12:36:30;;;;;;;11.77;4.73;;;26.90;55.70;;;;;;5069366;28;21018;-78
2023/09/07 12:39:01;;;;;;;7.30;4.50;;;27.00;55.80;;;;;;5086285;28;20522;-77
2023/09/07 12:41:29;;;;;;;10.00;4.50;;;27.00;55.60;;;;;;5085127;28;20979;-79
2023/09/07 12:44:00;;;;;;;12.13;4.97;;;27.00;55.30;;;;;;5086075;28;20453;-79
2023/09/07 12:46:28;;;;;;;7.73;4.30;;;27.10;55.10;;;;;;5069756;28;20476;-77
2023/09/07 12:48:58;;;;;;;8.10;4.43;;;27.10;54.90;;;;;;5085880;28;20931;-79
2023/09/07 12:51:26;;;;;;;7.43;4.47;;;27.20;54.70;;;;;;5088696;28;20536;-78
2023/09/07 12:53:55;;;;;;;8.80;4.50;;;27.30;54.40;;;;;;5085030;28;20513;-77